createdAt,value
2017-12-02T00:00:21.669Z,0
2017-12-02T00:01:22.448Z,0
2017-12-02T00:02:23.167Z,0
2017-12-02T00:03:24.089Z,0
2017-12-02T00:04:24.813Z,0
2017-12-02T00:05:25.524Z,0
2017-12-02T00:06:26.244Z,0
2017-12-02T00:07:27.022Z,0
2017-12-02T00:08:27.733Z,0
2017-12-02T00:09:28.552Z,0
2017-12-02T00:10:29.374Z,0
2017-12-02T00:11:30.167Z,0
2017-12-02T00:12:30.928Z,0
2017-12-02T00:13:31.642Z,0
2017-12-02T00:14:32.356Z,0
2017-12-02T00:15:33.075Z,0
2017-12-02T00:16:33.875Z,0
2017-12-02T00:17:35.614Z,0
2017-12-02T00:18:36.303Z,0
2017-12-02T00:19:37.096Z,0
2017-12-02T00:20:37.992Z,0
2017-12-02T00:21:38.721Z,0
2017-12-02T00:22:39.462Z,0
2017-12-02T00:23:40.284Z,0
2017-12-02T00:24:41.062Z,0
2017-12-02T00:25:41.782Z,0
2017-12-02T00:26:42.502Z,0
2017-12-02T00:27:43.224Z,0
2017-12-02T00:28:45.191Z,0
2017-12-02T00:29:46.055Z,0
2017-12-02T00:30:46.771Z,0
2017-12-02T00:31:47.492Z,0
2017-12-02T00:32:48.212Z,0
2017-12-02T00:33:48.945Z,0
2017-12-02T00:34:49.764Z,0
2017-12-02T00:35:50.568Z,0
2017-12-02T00:36:51.342Z,0
2017-12-02T00:37:52.062Z,0
2017-12-02T00:38:52.819Z,0
2017-12-02T00:39:53.573Z,0
2017-12-02T00:40:54.357Z,0
2017-12-02T00:41:55.143Z,0
2017-12-02T00:42:55.871Z,0
2017-12-02T00:43:56.648Z,0
2017-12-02T00:44:57.475Z,0
2017-12-02T00:45:58.200Z,0
2017-12-02T00:46:58.929Z,0
2017-12-02T00:47:59.698Z,0
2017-12-02T00:49:00.420Z,0
2017-12-02T00:50:01.148Z,0
2017-12-02T00:51:01.879Z,0
2017-12-02T00:52:02.652Z,0
2017-12-02T00:53:03.366Z,0
2017-12-02T00:54:04.085Z,0
2017-12-02T00:55:04.872Z,0
2017-12-02T00:56:06.384Z,0
2017-12-02T00:57:07.036Z,0
2017-12-02T00:58:07.811Z,0
2017-12-02T00:59:08.533Z,0
2017-12-02T01:00:09.261Z,0
2017-12-02T01:01:10.053Z,0
2017-12-02T01:02:10.775Z,0
2017-12-02T01:03:11.604Z,0
2017-12-02T01:04:12.321Z,0
2017-12-02T01:05:13.123Z,0
2017-12-02T01:06:13.846Z,0
2017-12-02T01:07:14.622Z,0
2017-12-02T01:08:15.386Z,0
2017-12-02T01:09:16.502Z,0
2017-12-02T01:10:18.022Z,0
2017-12-02T01:11:19.461Z,0
2017-12-02T01:12:20.193Z,0
2017-12-02T01:13:20.972Z,0
2017-12-02T01:14:21.792Z,0
2017-12-02T01:15:22.514Z,0
2017-12-02T01:16:23.232Z,0
2017-12-02T01:17:23.974Z,0
2017-12-02T01:18:24.774Z,0
2017-12-02T01:19:25.494Z,0
2017-12-02T01:20:26.289Z,0
2017-12-02T01:21:27.013Z,0
2017-12-02T01:22:27.732Z,0
2017-12-02T01:23:28.441Z,0
2017-12-02T01:24:29.322Z,0
2017-12-02T01:25:29.983Z,0
2017-12-02T01:26:30.778Z,0
2017-12-02T01:27:31.571Z,0
2017-12-02T01:28:32.289Z,0
2017-12-02T01:29:33.775Z,0
2017-12-02T01:30:35.214Z,0
2017-12-02T01:31:36.261Z,0
2017-12-02T01:32:36.980Z,0
2017-12-02T01:33:37.709Z,0
2017-12-02T01:34:38.479Z,0
2017-12-02T01:35:39.233Z,0
2017-12-02T01:36:39.957Z,0
2017-12-02T01:37:40.753Z,0
2017-12-02T01:38:41.703Z,0
2017-12-02T01:39:42.453Z,0
2017-12-02T01:40:43.244Z,0
2017-12-02T01:41:43.951Z,0
2017-12-02T01:42:44.752Z,0
2017-12-02T01:43:45.480Z,0
2017-12-02T01:44:46.751Z,0
2017-12-02T01:45:47.559Z,0
2017-12-02T01:46:48.284Z,0
2017-12-02T01:47:49.078Z,0
2017-12-02T01:48:49.922Z,0
2017-12-02T01:49:50.644Z,0
2017-12-02T01:50:51.443Z,0
2017-12-02T01:51:52.267Z,0
2017-12-02T01:52:53.051Z,0
2017-12-02T01:53:53.768Z,0
2017-12-02T01:54:54.484Z,0
2017-12-02T01:55:55.271Z,0
2017-12-02T01:56:56.093Z,0
2017-12-02T01:57:56.818Z,0
2017-12-02T01:58:57.603Z,0
2017-12-02T01:59:58.391Z,0
2017-12-02T02:00:59.116Z,0
2017-12-02T02:01:59.919Z,0
2017-12-02T02:03:00.624Z,0
2017-12-02T02:04:01.341Z,0
2017-12-02T02:05:02.071Z,0
2017-12-02T02:06:02.832Z,0
2017-12-02T02:07:03.652Z,0
2017-12-02T02:08:04.374Z,0
2017-12-02T02:09:05.163Z,0
2017-12-02T02:10:05.889Z,0
2017-12-02T02:11:06.657Z,0
2017-12-02T02:12:07.523Z,0
2017-12-02T02:13:08.256Z,0
2017-12-02T02:14:09.010Z,0
2017-12-02T02:15:09.727Z,0
2017-12-02T02:16:10.461Z,0
2017-12-02T02:17:11.243Z,0
2017-12-02T02:18:11.974Z,0
2017-12-02T02:19:12.765Z,0
2017-12-02T02:20:13.496Z,0
2017-12-02T02:21:14.276Z,0
2017-12-02T02:22:15.063Z,0
2017-12-02T02:23:15.782Z,0
2017-12-02T02:24:16.512Z,0
2017-12-02T02:25:17.229Z,0
2017-12-02T02:26:17.951Z,0
2017-12-02T02:27:18.723Z,0
2017-12-02T02:28:19.542Z,0
2017-12-02T02:29:20.258Z,0
2017-12-02T02:30:20.997Z,0
2017-12-02T02:31:21.792Z,0
2017-12-02T02:32:22.565Z,0
2017-12-02T02:33:23.291Z,0
2017-12-02T02:34:24.042Z,0
2017-12-02T02:35:24.862Z,0
2017-12-02T02:36:25.649Z,0
2017-12-02T02:37:26.451Z,0
2017-12-02T02:38:27.258Z,0
2017-12-02T02:39:27.974Z,0
2017-12-02T02:40:28.756Z,0
2017-12-02T02:41:29.497Z,0
2017-12-02T02:42:30.252Z,0
2017-12-02T02:43:30.976Z,0
2017-12-02T02:44:31.732Z,0
2017-12-02T02:45:32.448Z,0
2017-12-02T02:46:33.233Z,0
2017-12-02T02:47:34.053Z,0
2017-12-02T02:48:34.772Z,0
2017-12-02T02:49:35.497Z,0
2017-12-02T02:50:36.225Z,0
2017-12-02T02:51:37.000Z,0
2017-12-02T02:52:37.836Z,0
2017-12-02T02:53:38.611Z,0
2017-12-02T02:54:39.330Z,0
2017-12-02T02:55:40.326Z,0
2017-12-02T02:56:40.985Z,0
2017-12-02T02:57:41.803Z,0
2017-12-02T02:58:42.522Z,0
2017-12-02T02:59:43.679Z,0
2017-12-02T03:00:44.342Z,0
2017-12-02T03:01:45.076Z,0
2017-12-02T03:02:45.793Z,0
2017-12-02T03:03:46.552Z,0
2017-12-02T03:04:47.859Z,0
2017-12-02T03:05:48.538Z,0
2017-12-02T03:06:49.273Z,0
2017-12-02T03:07:50.174Z,0
2017-12-02T03:08:50.952Z,0
2017-12-02T03:09:51.665Z,0
2017-12-02T03:10:52.392Z,0
2017-12-02T03:11:53.132Z,0
2017-12-02T03:12:53.903Z,0
2017-12-02T03:13:54.626Z,0
2017-12-02T03:14:55.343Z,0
2017-12-02T03:15:56.063Z,0
2017-12-02T03:16:56.781Z,0
2017-12-02T03:17:57.543Z,0
2017-12-02T03:18:58.273Z,0
2017-12-02T03:19:59.089Z,0
2017-12-02T03:20:59.812Z,0
2017-12-02T03:22:00.536Z,0
2017-12-02T03:23:01.256Z,0
2017-12-02T03:24:03.423Z,0
2017-12-02T03:25:04.142Z,0
2017-12-02T03:26:04.865Z,0
2017-12-02T03:27:05.597Z,0
2017-12-02T03:28:06.354Z,0
2017-12-02T03:29:07.067Z,0
2017-12-02T03:30:07.855Z,0
2017-12-02T03:31:08.660Z,0
2017-12-02T03:32:09.462Z,0
2017-12-02T03:33:10.184Z,0
2017-12-02T03:34:10.902Z,0
2017-12-02T03:35:11.676Z,0
2017-12-02T03:36:12.476Z,0
2017-12-02T03:37:13.198Z,0
2017-12-02T03:38:13.916Z,0
2017-12-02T03:39:14.654Z,0
2017-12-02T03:40:15.432Z,0
2017-12-02T03:41:16.165Z,0
2017-12-02T03:42:16.932Z,0
2017-12-02T03:43:17.652Z,0
2017-12-02T03:44:18.378Z,0
2017-12-02T03:45:19.192Z,0
2017-12-02T03:46:19.914Z,0
2017-12-02T03:47:20.645Z,0
2017-12-02T03:48:21.411Z,0
2017-12-02T03:49:22.141Z,0
2017-12-02T03:50:22.901Z,0
2017-12-02T03:51:23.616Z,0
2017-12-02T03:52:24.337Z,0
2017-12-02T03:53:25.126Z,0
2017-12-02T03:54:25.841Z,0
2017-12-02T03:55:26.670Z,0
2017-12-02T03:56:27.461Z,0
2017-12-02T03:57:28.193Z,0
2017-12-02T03:58:28.988Z,0
2017-12-02T03:59:29.711Z,0
2017-12-02T04:00:30.533Z,0
2017-12-02T04:01:31.296Z,0
2017-12-02T04:02:32.026Z,0
2017-12-02T04:03:32.795Z,0
2017-12-02T04:04:33.593Z,0
2017-12-02T04:05:34.313Z,0
2017-12-02T04:06:35.192Z,0
2017-12-02T04:07:35.913Z,0
2017-12-02T04:08:36.632Z,0
2017-12-02T04:09:37.352Z,0
2017-12-02T04:10:38.078Z,0
2017-12-02T04:11:38.890Z,0
2017-12-02T04:12:39.691Z,0
2017-12-02T04:13:40.465Z,0
2017-12-02T04:14:41.254Z,0
2017-12-02T04:15:42.056Z,0
2017-12-02T04:16:42.874Z,0
2017-12-02T04:17:43.654Z,0
2017-12-02T04:18:44.425Z,0
2017-12-02T04:19:45.219Z,0
2017-12-02T04:20:46.014Z,0
2017-12-02T04:21:46.813Z,0
2017-12-02T04:22:47.554Z,0
2017-12-02T04:23:48.325Z,0
2017-12-02T04:24:49.115Z,0
2017-12-02T04:25:49.922Z,0
2017-12-02T04:26:50.782Z,0
2017-12-02T04:27:51.492Z,0
2017-12-02T04:28:52.214Z,0
2017-12-02T04:29:53.003Z,0
2017-12-02T04:30:53.724Z,0
2017-12-02T04:31:54.443Z,0
2017-12-02T04:32:55.164Z,0
2017-12-02T04:33:55.913Z,0
2017-12-02T04:34:56.655Z,0
2017-12-02T04:35:57.448Z,0
2017-12-02T04:36:58.182Z,0
2017-12-02T04:37:58.964Z,0
2017-12-02T04:38:59.856Z,0
2017-12-02T04:40:00.636Z,0
2017-12-02T04:41:01.410Z,0
2017-12-02T04:42:02.132Z,0
2017-12-02T04:43:02.863Z,0
2017-12-02T04:44:03.695Z,0
2017-12-02T04:45:04.446Z,0
2017-12-02T04:46:05.164Z,0
2017-12-02T04:47:05.880Z,0
2017-12-02T04:48:06.605Z,0
2017-12-02T04:49:07.443Z,0
2017-12-02T04:50:08.163Z,0
2017-12-02T04:51:08.883Z,0
2017-12-02T04:52:09.693Z,0
2017-12-02T04:53:10.413Z,0
2017-12-02T04:54:11.203Z,0
2017-12-02T04:55:11.912Z,0
2017-12-02T04:56:12.634Z,0
2017-12-02T04:57:13.354Z,0
2017-12-02T04:58:14.148Z,0
2017-12-02T04:59:14.817Z,0
2017-12-02T05:00:15.566Z,0
2017-12-02T05:01:16.364Z,0
2017-12-02T05:02:17.166Z,0
2017-12-02T05:03:17.886Z,0
2017-12-02T05:04:18.654Z,0
2017-12-02T05:05:19.474Z,0
2017-12-02T05:06:20.192Z,0
2017-12-02T05:07:20.977Z,0
2017-12-02T05:08:21.786Z,0
2017-12-02T05:09:22.554Z,0
2017-12-02T05:10:23.265Z,0
2017-12-02T05:11:24.100Z,0
2017-12-02T05:12:24.847Z,0
2017-12-02T05:13:25.683Z,0
2017-12-02T05:14:26.462Z,0
2017-12-02T05:15:27.173Z,0
2017-12-02T05:16:27.900Z,0
2017-12-02T05:17:28.614Z,0
2017-12-02T05:18:29.324Z,0
2017-12-02T05:19:30.134Z,0
2017-12-02T05:20:30.851Z,0
2017-12-02T05:21:31.565Z,0
2017-12-02T05:22:32.282Z,0
2017-12-02T05:23:33.003Z,0
2017-12-02T05:24:33.725Z,0
2017-12-02T05:25:34.563Z,0
2017-12-02T05:26:35.300Z,0
2017-12-02T05:27:36.016Z,0
2017-12-02T05:28:36.793Z,0
2017-12-02T05:29:37.512Z,0
2017-12-02T05:30:38.225Z,0
2017-12-02T05:31:39.004Z,0
2017-12-02T05:32:39.732Z,0
2017-12-02T05:33:40.512Z,0
2017-12-02T05:34:41.239Z,0
2017-12-02T05:35:42.018Z,0
2017-12-02T05:36:42.847Z,0
2017-12-02T05:37:43.616Z,0
2017-12-02T05:38:44.394Z,0
2017-12-02T05:39:45.184Z,0
2017-12-02T05:40:45.899Z,0
2017-12-02T05:41:46.701Z,0
2017-12-02T05:42:47.536Z,0
2017-12-02T05:43:48.254Z,0
2017-12-02T05:44:48.971Z,0
2017-12-02T05:45:49.753Z,0
2017-12-02T05:46:50.534Z,0
2017-12-02T05:47:51.309Z,0
2017-12-02T05:48:52.123Z,0
2017-12-02T05:49:52.853Z,0
2017-12-02T05:50:53.573Z,0
2017-12-02T05:51:54.290Z,0
2017-12-02T05:52:55.066Z,0
2017-12-02T05:53:55.859Z,0
2017-12-02T05:54:56.622Z,0
2017-12-02T05:55:57.393Z,0
2017-12-02T05:56:58.113Z,0
2017-12-02T05:57:58.834Z,0
2017-12-02T05:58:59.557Z,0
2017-12-02T06:00:00.374Z,0
2017-12-02T06:01:01.112Z,0
2017-12-02T06:02:01.827Z,0
2017-12-02T06:03:02.613Z,0
2017-12-02T06:04:03.338Z,0
2017-12-02T06:05:04.224Z,0
2017-12-02T06:06:04.943Z,0
2017-12-02T06:07:05.683Z,0
2017-12-02T06:08:06.416Z,0
2017-12-02T06:09:07.204Z,0
2017-12-02T06:10:08.039Z,0
2017-12-02T06:11:09.134Z,0
2017-12-02T06:12:09.832Z,0
2017-12-02T06:13:10.609Z,0
2017-12-02T06:14:11.399Z,0
2017-12-02T06:15:12.155Z,0
2017-12-02T06:16:12.959Z,0
2017-12-02T06:17:13.749Z,0
2017-12-02T06:18:14.538Z,0
2017-12-02T06:19:15.312Z,0
2017-12-02T06:20:16.035Z,0
2017-12-02T06:21:16.832Z,0
2017-12-02T06:22:17.552Z,0
2017-12-02T06:23:18.272Z,0
2017-12-02T06:24:18.990Z,0
2017-12-02T06:25:19.749Z,0
2017-12-02T06:26:20.418Z,0
2017-12-02T06:27:21.188Z,0
2017-12-02T06:28:21.984Z,0
2017-12-02T06:29:22.763Z,0
2017-12-02T06:30:23.495Z,0
2017-12-02T06:31:24.287Z,0
2017-12-02T06:32:25.010Z,0
2017-12-02T06:33:25.738Z,0
2017-12-02T06:34:26.505Z,0
2017-12-02T06:35:27.294Z,0
2017-12-02T06:36:28.068Z,0
2017-12-02T06:37:28.853Z,0
2017-12-02T06:38:29.583Z,0
2017-12-02T06:39:30.417Z,0
2017-12-02T06:40:31.173Z,0
2017-12-02T06:41:31.893Z,0
2017-12-02T06:42:32.602Z,0
2017-12-02T06:43:33.315Z,0
2017-12-02T06:44:34.071Z,0
2017-12-02T06:45:34.782Z,0
2017-12-02T06:46:35.558Z,0
2017-12-02T06:47:36.283Z,0
2017-12-02T06:48:37.008Z,0
2017-12-02T06:49:37.802Z,0
2017-12-02T06:50:38.512Z,0
2017-12-02T06:51:39.233Z,0
2017-12-02T06:52:39.955Z,0
2017-12-02T06:53:40.677Z,0
2017-12-02T06:54:41.461Z,0
2017-12-02T06:55:42.197Z,0
2017-12-02T06:56:42.967Z,0
2017-12-02T06:57:43.742Z,0
2017-12-02T06:58:44.463Z,0
2017-12-02T06:59:45.194Z,0
2017-12-02T07:00:46.004Z,0
2017-12-02T07:01:46.828Z,0
2017-12-02T07:02:47.543Z,0
2017-12-02T07:03:48.293Z,0
2017-12-02T07:04:49.007Z,0
2017-12-02T07:05:49.741Z,0
2017-12-02T07:06:50.453Z,0
2017-12-02T07:07:51.177Z,0
2017-12-02T07:08:51.933Z,0
2017-12-02T07:09:52.712Z,0
2017-12-02T07:10:53.504Z,0
2017-12-02T07:11:54.434Z,0
2017-12-02T07:12:55.161Z,5
2017-12-02T07:13:55.923Z,5
2017-12-02T07:14:56.654Z,5
2017-12-02T07:15:57.393Z,5
2017-12-02T07:16:58.213Z,5
2017-12-02T07:17:58.939Z,5
2017-12-02T07:18:59.656Z,5
2017-12-02T07:20:00.383Z,5
2017-12-02T07:21:01.106Z,5
2017-12-02T07:22:01.883Z,5
2017-12-02T07:23:02.612Z,11
2017-12-02T07:24:03.358Z,11
2017-12-02T07:25:04.132Z,11
2017-12-02T07:26:04.912Z,11
2017-12-02T07:27:05.732Z,11
2017-12-02T07:28:06.456Z,11
2017-12-02T07:29:07.179Z,16
2017-12-02T07:30:07.903Z,16
2017-12-02T07:31:08.622Z,16
2017-12-02T07:32:09.383Z,16
2017-12-02T07:33:10.110Z,16
2017-12-02T07:34:10.846Z,16
2017-12-02T07:35:11.613Z,16
2017-12-02T07:36:12.325Z,16
2017-12-02T07:37:13.165Z,16
2017-12-02T07:38:13.918Z,16
2017-12-02T07:39:14.653Z,22
2017-12-02T07:40:15.389Z,22
2017-12-02T07:41:16.123Z,22
2017-12-02T07:42:16.843Z,22
2017-12-02T07:43:17.572Z,22
2017-12-02T07:44:18.303Z,22
2017-12-02T07:45:19.197Z,28
2017-12-02T07:46:19.993Z,28
2017-12-02T07:47:20.713Z,28
2017-12-02T07:48:21.452Z,28
2017-12-02T07:49:22.177Z,28
2017-12-02T07:50:22.905Z,33
2017-12-02T07:51:23.693Z,33
2017-12-02T07:52:24.429Z,33
2017-12-02T07:53:25.161Z,33
2017-12-02T07:54:25.885Z,33
2017-12-02T07:55:26.662Z,33
2017-12-02T07:56:27.384Z,39
2017-12-02T07:57:28.113Z,39
2017-12-02T07:58:28.833Z,39
2017-12-02T07:59:29.553Z,45
2017-12-02T08:00:30.272Z,45
2017-12-02T08:01:31.003Z,45
2017-12-02T08:02:31.717Z,45
2017-12-02T08:03:32.512Z,45
2017-12-02T08:04:33.242Z,45
2017-12-02T08:05:34.143Z,50
2017-12-02T08:06:34.867Z,56
2017-12-02T08:07:35.591Z,56
2017-12-02T08:08:36.331Z,61
2017-12-02T08:09:37.095Z,61
2017-12-02T08:10:37.836Z,61
2017-12-02T08:11:38.606Z,67
2017-12-02T08:12:39.341Z,73
2017-12-02T08:13:40.158Z,78
2017-12-02T08:14:40.898Z,78
2017-12-02T08:15:41.642Z,84
2017-12-02T08:16:42.372Z,84
2017-12-02T08:17:43.155Z,90
2017-12-02T08:18:43.868Z,90
2017-12-02T08:19:44.692Z,90
2017-12-02T08:20:45.423Z,90
2017-12-02T08:21:46.155Z,90
2017-12-02T08:22:46.949Z,90
2017-12-02T08:23:47.748Z,90
2017-12-02T08:24:48.482Z,95
2017-12-02T08:25:49.204Z,95
2017-12-02T08:26:49.937Z,90
2017-12-02T08:27:50.724Z,90
2017-12-02T08:28:51.447Z,84
2017-12-02T08:29:52.233Z,84
2017-12-02T08:30:52.954Z,84
2017-12-02T08:31:53.758Z,90
2017-12-02T08:32:54.482Z,95
2017-12-02T08:33:55.263Z,95
2017-12-02T08:34:56.091Z,95
2017-12-02T08:35:56.857Z,101
2017-12-02T08:36:57.632Z,101
2017-12-02T08:37:58.357Z,101
2017-12-02T08:38:59.172Z,106
2017-12-02T08:39:59.934Z,106
2017-12-02T08:41:00.730Z,106
2017-12-02T08:42:01.462Z,106
2017-12-02T08:43:02.179Z,106
2017-12-02T08:44:02.973Z,106
2017-12-02T08:45:03.699Z,106
2017-12-02T08:46:04.535Z,101
2017-12-02T08:47:05.317Z,106
2017-12-02T08:48:06.042Z,106
2017-12-02T08:49:06.770Z,112
2017-12-02T08:50:07.494Z,112
2017-12-02T08:51:08.290Z,112
2017-12-02T08:52:09.004Z,112
2017-12-02T08:53:09.741Z,118
2017-12-02T08:54:10.502Z,118
2017-12-02T08:55:11.225Z,118
2017-12-02T08:56:11.994Z,112
2017-12-02T08:57:12.722Z,112
2017-12-02T08:58:13.458Z,112
2017-12-02T08:59:14.260Z,106
2017-12-02T09:00:14.982Z,106
2017-12-02T09:01:15.813Z,106
2017-12-02T09:02:16.537Z,106
2017-12-02T09:03:17.336Z,106
2017-12-02T09:04:18.115Z,112
2017-12-02T09:05:18.923Z,118
2017-12-02T09:06:19.721Z,123
2017-12-02T09:07:20.466Z,129
2017-12-02T09:08:21.203Z,129
2017-12-02T09:09:21.928Z,129
2017-12-02T09:10:22.700Z,129
2017-12-02T09:11:23.592Z,129
2017-12-02T09:12:24.353Z,129
2017-12-02T09:13:25.112Z,123
2017-12-02T09:14:25.850Z,118
2017-12-02T09:15:26.570Z,118
2017-12-02T09:16:27.404Z,123
2017-12-02T09:17:28.134Z,123
2017-12-02T09:18:28.936Z,123
2017-12-02T09:19:29.654Z,123
2017-12-02T09:20:30.371Z,123
2017-12-02T09:21:31.152Z,123
2017-12-02T09:22:31.883Z,123
2017-12-02T09:23:32.606Z,123
2017-12-02T09:24:33.364Z,118
2017-12-02T09:25:34.085Z,123
2017-12-02T09:26:34.993Z,123
2017-12-02T09:27:35.713Z,123
2017-12-02T09:28:36.433Z,129
2017-12-02T09:29:37.174Z,129
2017-12-02T09:30:37.963Z,129
2017-12-02T09:31:38.692Z,123
2017-12-02T09:32:39.416Z,123
2017-12-02T09:33:40.193Z,118
2017-12-02T09:34:40.915Z,118
2017-12-02T09:35:41.638Z,118
2017-12-02T09:36:42.414Z,123
2017-12-02T09:37:43.169Z,129
2017-12-02T09:38:43.913Z,135
2017-12-02T09:39:44.647Z,135
2017-12-02T09:40:45.375Z,140
2017-12-02T09:41:46.173Z,146
2017-12-02T09:42:46.902Z,151
2017-12-02T09:43:47.637Z,146
2017-12-02T09:44:48.432Z,140
2017-12-02T09:45:49.151Z,135
2017-12-02T09:46:49.895Z,129
2017-12-02T09:47:50.564Z,129
2017-12-02T09:48:51.283Z,129
2017-12-02T09:49:52.003Z,129
2017-12-02T09:50:52.726Z,135
2017-12-02T09:51:53.485Z,135
2017-12-02T09:52:54.298Z,140
2017-12-02T09:53:55.045Z,140
2017-12-02T09:54:55.838Z,140
2017-12-02T09:55:56.636Z,146
2017-12-02T09:56:57.403Z,151
2017-12-02T09:57:58.123Z,146
2017-12-02T09:58:58.953Z,146
2017-12-02T09:59:59.672Z,146
2017-12-02T10:01:00.392Z,146
2017-12-02T10:02:01.124Z,157
2017-12-02T10:03:01.852Z,168
2017-12-02T10:04:02.624Z,185
2017-12-02T10:05:03.345Z,202
2017-12-02T10:06:04.070Z,213
2017-12-02T10:07:04.812Z,219
2017-12-02T10:08:05.536Z,213
2017-12-02T10:09:06.382Z,208
2017-12-02T10:10:07.115Z,202
2017-12-02T10:11:07.914Z,202
2017-12-02T10:12:08.693Z,196
2017-12-02T10:13:09.416Z,191
2017-12-02T10:14:10.314Z,185
2017-12-02T10:15:11.039Z,180
2017-12-02T10:16:11.766Z,180
2017-12-02T10:17:12.543Z,180
2017-12-02T10:18:13.263Z,180
2017-12-02T10:19:14.112Z,185
2017-12-02T10:20:14.843Z,185
2017-12-02T10:21:15.625Z,185
2017-12-02T10:22:16.355Z,180
2017-12-02T10:23:17.133Z,168
2017-12-02T10:24:17.911Z,168
2017-12-02T10:25:18.643Z,168
2017-12-02T10:26:19.365Z,174
2017-12-02T10:27:20.087Z,174
2017-12-02T10:28:20.893Z,168
2017-12-02T10:29:21.670Z,163
2017-12-02T10:30:22.411Z,157
2017-12-02T10:31:23.192Z,151
2017-12-02T10:32:23.926Z,146
2017-12-02T10:33:24.683Z,146
2017-12-02T10:34:25.409Z,146
2017-12-02T10:35:26.248Z,151
2017-12-02T10:36:26.928Z,157
2017-12-02T10:37:27.715Z,168
2017-12-02T10:38:28.438Z,180
2017-12-02T10:39:29.176Z,191
2017-12-02T10:40:30.024Z,196
2017-12-02T10:41:30.743Z,191
2017-12-02T10:42:31.482Z,191
2017-12-02T10:43:32.264Z,185
2017-12-02T10:44:33.066Z,185
2017-12-02T10:45:33.832Z,185
2017-12-02T10:46:34.557Z,196
2017-12-02T10:47:35.289Z,202
2017-12-02T10:48:36.015Z,213
2017-12-02T10:49:36.814Z,213
2017-12-02T10:50:37.545Z,202
2017-12-02T10:51:38.393Z,196
2017-12-02T10:52:39.130Z,196
2017-12-02T10:53:39.858Z,208
2017-12-02T10:54:40.647Z,225
2017-12-02T10:55:41.372Z,258
2017-12-02T10:56:42.153Z,286
2017-12-02T10:57:42.882Z,309
2017-12-02T10:58:43.610Z,326
2017-12-02T10:59:44.333Z,331
2017-12-02T11:00:45.057Z,315
2017-12-02T11:01:45.833Z,286
2017-12-02T11:02:46.552Z,275
2017-12-02T11:03:47.276Z,281
2017-12-02T11:04:48.005Z,281
2017-12-02T11:05:48.804Z,275
2017-12-02T11:06:49.532Z,270
2017-12-02T11:07:50.255Z,264
2017-12-02T11:08:51.063Z,258
2017-12-02T11:09:51.883Z,247
2017-12-02T11:10:52.606Z,241
2017-12-02T11:11:53.335Z,253
2017-12-02T11:12:54.132Z,258
2017-12-02T11:13:54.873Z,258
2017-12-02T11:14:55.697Z,253
2017-12-02T11:15:56.412Z,241
2017-12-02T11:16:57.145Z,241
2017-12-02T11:17:57.923Z,241
2017-12-02T11:18:58.714Z,236
2017-12-02T11:19:59.547Z,230
2017-12-02T11:21:00.334Z,230
2017-12-02T11:22:01.053Z,225
2017-12-02T11:23:01.785Z,225
2017-12-02T11:24:02.594Z,225
2017-12-02T11:25:03.402Z,225
2017-12-02T11:26:04.141Z,230
2017-12-02T11:27:04.903Z,241
2017-12-02T11:28:05.702Z,253
2017-12-02T11:29:06.433Z,264
2017-12-02T11:30:07.157Z,258
2017-12-02T11:31:07.878Z,241
2017-12-02T11:32:08.763Z,236
2017-12-02T11:33:09.545Z,225
2017-12-02T11:34:10.370Z,230
2017-12-02T11:35:11.144Z,241
2017-12-02T11:36:11.910Z,253
2017-12-02T11:37:12.742Z,253
2017-12-02T11:38:13.545Z,253
2017-12-02T11:39:14.269Z,253
2017-12-02T11:40:15.079Z,264
2017-12-02T11:41:15.800Z,286
2017-12-02T11:42:16.646Z,303
2017-12-02T11:43:17.423Z,303
2017-12-02T11:44:18.164Z,303
2017-12-02T11:45:18.887Z,303
2017-12-02T11:46:19.652Z,315
2017-12-02T11:47:20.484Z,337
2017-12-02T11:48:21.285Z,354
2017-12-02T11:49:22.013Z,348
2017-12-02T11:50:22.742Z,331
2017-12-02T11:51:23.488Z,343
2017-12-02T11:52:24.225Z,360
2017-12-02T11:53:25.024Z,360
2017-12-02T11:54:25.835Z,331
2017-12-02T11:55:26.623Z,326
2017-12-02T11:56:27.518Z,326
2017-12-02T11:57:28.226Z,315
2017-12-02T11:58:29.058Z,320
2017-12-02T11:59:29.853Z,343
2017-12-02T12:00:30.579Z,348
2017-12-02T12:01:31.365Z,331
2017-12-02T12:02:32.101Z,331
2017-12-02T12:03:32.832Z,354
2017-12-02T12:04:33.557Z,382
2017-12-02T12:05:34.289Z,410
2017-12-02T12:06:35.063Z,410
2017-12-02T12:07:35.797Z,388
2017-12-02T12:08:36.601Z,371
2017-12-02T12:09:37.336Z,365
2017-12-02T12:10:38.073Z,365
2017-12-02T12:11:38.800Z,360
2017-12-02T12:12:39.523Z,365
2017-12-02T12:13:40.253Z,365
2017-12-02T12:14:40.995Z,360
2017-12-02T12:15:41.802Z,382
2017-12-02T12:16:42.522Z,399
2017-12-02T12:17:43.262Z,388
2017-12-02T12:18:43.993Z,360
2017-12-02T12:19:44.774Z,337
2017-12-02T12:22:00.115Z,348
2017-12-02T12:23:01.785Z,354
2017-12-02T12:24:03.059Z,348
2017-12-02T12:25:03.777Z,331
2017-12-02T12:26:05.193Z,309
2017-12-02T12:27:06.820Z,292
2017-12-02T12:28:08.016Z,275
2017-12-02T12:29:09.517Z,264
2017-12-02T12:30:10.232Z,264
2017-12-02T12:31:11.075Z,264
2017-12-02T12:32:11.892Z,258
2017-12-02T12:33:12.660Z,247
2017-12-02T12:34:13.382Z,236
2017-12-02T12:35:14.113Z,230
2017-12-02T12:36:14.939Z,230
2017-12-02T12:37:16.005Z,230
2017-12-02T12:38:16.920Z,213
2017-12-02T12:39:17.698Z,213
2017-12-02T12:40:18.477Z,219
2017-12-02T12:41:19.278Z,219
2017-12-02T12:42:20.150Z,219
2017-12-02T12:43:21.630Z,236
2017-12-02T12:44:23.219Z,236
2017-12-02T12:45:24.103Z,236
2017-12-02T12:46:25.932Z,219
2017-12-02T12:47:26.845Z,208
2017-12-02T12:48:27.718Z,208
2017-12-02T12:49:28.441Z,208
2017-12-02T12:50:29.223Z,196
2017-12-02T12:51:29.945Z,202
2017-12-02T12:52:30.668Z,213
2017-12-02T12:53:31.473Z,213
2017-12-02T12:54:32.207Z,202
2017-12-02T12:55:32.982Z,202
2017-12-02T12:56:33.764Z,196
2017-12-02T12:57:34.480Z,196
2017-12-02T12:58:35.296Z,208
2017-12-02T12:59:36.103Z,213
2017-12-02T13:00:37.014Z,202
2017-12-02T13:01:37.806Z,185
2017-12-02T13:02:38.631Z,180
2017-12-02T13:03:40.393Z,180
2017-12-02T13:04:41.394Z,174
2017-12-02T13:05:42.178Z,174
2017-12-02T13:06:43.293Z,174
2017-12-02T13:07:44.214Z,168
2017-12-02T13:08:44.930Z,168
2017-12-02T13:09:45.669Z,168
2017-12-02T13:10:46.545Z,163
2017-12-02T13:11:47.340Z,174
2017-12-02T13:12:48.156Z,180
2017-12-02T13:13:48.938Z,180
2017-12-02T13:14:49.748Z,185
2017-12-02T13:15:50.623Z,168
2017-12-02T13:16:51.348Z,151
2017-12-02T13:17:52.164Z,146
2017-12-02T13:18:52.942Z,146
2017-12-02T13:19:53.691Z,151
2017-12-02T13:20:54.487Z,151
2017-12-02T13:21:55.198Z,151
2017-12-02T13:22:55.924Z,151
2017-12-02T13:23:56.835Z,157
2017-12-02T13:24:57.600Z,151
2017-12-02T13:25:58.388Z,146
2017-12-02T13:26:59.152Z,146
2017-12-02T13:27:59.884Z,146
2017-12-02T13:29:00.847Z,135
2017-12-02T13:30:01.517Z,123
2017-12-02T13:31:02.294Z,135
2017-12-02T13:32:03.027Z,135
2017-12-02T13:33:03.803Z,140
2017-12-02T13:34:04.613Z,146
2017-12-02T13:35:05.344Z,140
2017-12-02T13:36:06.149Z,135
2017-12-02T13:37:06.983Z,123
2017-12-02T13:38:07.702Z,129
2017-12-02T13:39:08.437Z,135
2017-12-02T13:40:09.235Z,129
2017-12-02T13:41:10.057Z,135
2017-12-02T13:42:10.886Z,146
2017-12-02T13:43:11.726Z,146
2017-12-02T13:44:12.445Z,157
2017-12-02T13:45:13.174Z,168
2017-12-02T13:46:13.932Z,174
2017-12-02T13:47:14.759Z,168
2017-12-02T13:48:15.459Z,168
2017-12-02T13:49:16.272Z,174
2017-12-02T13:50:17.217Z,163
2017-12-02T13:51:18.033Z,151
2017-12-02T13:52:18.854Z,146
2017-12-02T13:53:19.573Z,140
2017-12-02T13:54:20.315Z,140
2017-12-02T13:55:21.073Z,140
2017-12-02T13:56:21.813Z,135
2017-12-02T13:57:22.543Z,129
2017-12-02T13:58:23.272Z,118
2017-12-02T13:59:24.071Z,118
2017-12-02T14:00:24.869Z,135
2017-12-02T14:01:25.589Z,140
2017-12-02T14:02:26.425Z,146
2017-12-02T14:03:27.215Z,135
2017-12-02T14:04:28.093Z,135
2017-12-02T14:05:28.826Z,129
2017-12-02T14:06:29.640Z,118
2017-12-02T14:07:30.484Z,106
2017-12-02T14:08:31.215Z,101
2017-12-02T14:09:32.004Z,101
2017-12-02T14:10:32.810Z,101
2017-12-02T14:11:33.593Z,106
2017-12-02T14:12:34.424Z,112
2017-12-02T14:13:35.186Z,123
2017-12-02T14:14:35.915Z,123
2017-12-02T14:15:36.741Z,112
2017-12-02T14:16:37.463Z,106
2017-12-02T14:17:38.194Z,101
2017-12-02T14:18:38.995Z,101
2017-12-02T14:19:39.856Z,101
2017-12-02T14:20:40.654Z,95
2017-12-02T14:21:41.443Z,84
2017-12-02T14:22:42.174Z,73
2017-12-02T14:23:42.902Z,73
2017-12-02T14:24:43.673Z,67
2017-12-02T14:25:44.396Z,67
2017-12-02T14:26:45.120Z,61
2017-12-02T14:27:45.873Z,61
2017-12-02T14:28:46.605Z,56
2017-12-02T14:29:47.337Z,50
2017-12-02T14:30:48.121Z,50
2017-12-02T14:31:48.837Z,45